HVN135 VVTS-WMKP
Flight info
| Callsign | HVN135 |
|---|---|
| Flight time | 1h 18m |
| Altitude | 34000 |
| Route | ANHOA5A ANHOA L637 BITOD/N0469F340 M765 VKB W546 BETNU BETNU1E |
| Aircraft | A321/M-SDE3FGHIRWY/LB1 |
Departure
| Time | 2026-05-08 13:26 |
|---|---|
| Airport | Tan Son Nhat International Airport (VVTS) |
Arrival
| Time | 2026-05-08 14:44 |
|---|---|
| Airport | Penang International Airport (WMKP) |
| Time | Latitude | Longitude | Altitude | Speed | Heading |
|---|---|---|---|---|---|
| 2026-05-08 13:13 | 10.81772 | 106.66442 | 37 ft | 0 kts | 159° |
| 2026-05-08 13:17 | 10.81780 | 106.66439 | 36 ft | 4 kts | 159° |
| 2026-05-08 13:17 | 10.81806 | 106.66429 | 35 ft | 4 kts | 160° |
| 2026-05-08 13:18 | 10.81831 | 106.66420 | 35 ft | 4 kts | 160° |
| 2026-05-08 13:18 | 10.81854 | 106.66412 | 36 ft | 4 kts | 141° |
| 2026-05-08 13:18 | 10.81865 | 106.66393 | 36 ft | 4 kts | 84° |
| 2026-05-08 13:18 | 10.81860 | 106.66372 | 35 ft | 1 kts | 68° |
| 2026-05-08 13:19 | 10.81858 | 106.66368 | 36 ft | 2 kts | 68° |
| 2026-05-08 13:21 | 10.81859 | 106.66370 | 36 ft | 2 kts | 68° |
| 2026-05-08 13:21 | 10.81868 | 106.66392 | 36 ft | 5 kts | 68° |
| 2026-05-08 13:21 | 10.81885 | 106.66437 | 36 ft | 9 kts | 69° |
| 2026-05-08 13:21 | 10.81911 | 106.66506 | 37 ft | 12 kts | 69° |
| 2026-05-08 13:22 | 10.81944 | 106.66595 | 37 ft | 12 kts | 69° |
| 2026-05-08 13:22 | 10.81979 | 106.66687 | 35 ft | 15 kts | 69° |
| 2026-05-08 13:22 | 10.82021 | 106.66797 | 37 ft | 18 kts | 69° |
| 2026-05-08 13:22 | 10.82066 | 106.66890 | 36 ft | 16 kts | 48° |
| 2026-05-08 13:23 | 10.82158 | 106.66968 | 35 ft | 14 kts | 38° |
| 2026-05-08 13:23 | 10.82241 | 106.67014 | 36 ft | 13 kts | 355° |
| 2026-05-08 13:23 | 10.82324 | 106.66966 | 35 ft | 14 kts | 291° |
| 2026-05-08 13:23 | 10.82359 | 106.66940 | 35 ft | 3 kts | 318° |
| 2026-05-08 13:24 | 10.82356 | 106.66912 | 35 ft | 6 kts | 254° |
| 2026-05-08 13:24 | 10.82351 | 106.66899 | 35 ft | 0 kts | 248° |
| 2026-05-08 13:25 | 10.82314 | 106.66802 | 33 ft | 57 kts | 248° |
| 2026-05-08 13:26 | 10.82034 | 106.66062 | 39 ft | 162 kts | 249° |
| 2026-05-08 13:26 | 10.81552 | 106.64793 | 581 ft | 204 kts | 245° |
| 2026-05-08 13:26 | 10.81206 | 106.63881 | 1299 ft | 202 kts | 244° |
| 2026-05-08 13:26 | 10.80699 | 106.62544 | 1919 ft | 214 kts | 245° |
| 2026-05-08 13:27 | 10.80128 | 106.61054 | 2266 ft | 237 kts | 246° |
| 2026-05-08 13:27 | 10.79496 | 106.59404 | 2586 ft | 264 kts | 246° |
| 2026-05-08 13:27 | 10.78814 | 106.57617 | 3310 ft | 276 kts | 247° |
| 2026-05-08 13:27 | 10.78117 | 106.55779 | 4218 ft | 281 kts | 249° |
| 2026-05-08 13:28 | 10.77411 | 106.53909 | 5137 ft | 286 kts | 250° |
| 2026-05-08 13:28 | 10.76693 | 106.52009 | 6026 ft | 290 kts | 250° |
| 2026-05-08 13:28 | 10.75961 | 106.50077 | 6857 ft | 296 kts | 250° |
| 2026-05-08 13:28 | 10.75212 | 106.48105 | 7719 ft | 300 kts | 249° |
| 2026-05-08 13:29 | 10.74456 | 106.46116 | 8601 ft | 303 kts | 249° |
| 2026-05-08 13:29 | 10.73691 | 106.44103 | 9471 ft | 307 kts | 248° |
| 2026-05-08 13:29 | 10.72917 | 106.42062 | 10128 ft | 318 kts | 248° |
| 2026-05-08 13:29 | 10.71877 | 106.39998 | 10364 ft | 340 kts | 231° |
| 2026-05-08 13:30 | 10.70061 | 106.38373 | 10530 ft | 359 kts | 208° |
| 2026-05-08 13:30 | 10.67804 | 106.37175 | 10943 ft | 370 kts | 205° |
| 2026-05-08 13:30 | 10.65489 | 106.35985 | 11577 ft | 375 kts | 205° |
| 2026-05-08 13:30 | 10.63147 | 106.34786 | 12238 ft | 379 kts | 205° |
| 2026-05-08 13:31 | 10.60818 | 106.33585 | 12888 ft | 382 kts | 205° |
| 2026-05-08 13:31 | 10.58437 | 106.32348 | 13533 ft | 386 kts | 205° |
| 2026-05-08 13:31 | 10.56040 | 106.31096 | 14104 ft | 389 kts | 205° |
| 2026-05-08 13:31 | 10.53625 | 106.29830 | 14667 ft | 392 kts | 205° |
| 2026-05-08 13:32 | 10.51192 | 106.28556 | 15223 ft | 395 kts | 205° |
| 2026-05-08 13:32 | 10.48742 | 106.27273 | 15797 ft | 397 kts | 205° |
| 2026-05-08 13:32 | 10.46280 | 106.25986 | 16372 ft | 400 kts | 205° |
| 2026-05-08 13:32 | 10.43794 | 106.24689 | 16945 ft | 403 kts | 205° |
| 2026-05-08 13:33 | 10.41282 | 106.23379 | 17507 ft | 406 kts | 205° |
| 2026-05-08 13:33 | 10.38765 | 106.22069 | 18051 ft | 409 kts | 205° |
| 2026-05-08 13:33 | 10.36222 | 106.20747 | 18512 ft | 412 kts | 205° |
| 2026-05-08 13:33 | 10.33661 | 106.19415 | 18965 ft | 415 kts | 205° |
| 2026-05-08 13:34 | 10.31084 | 106.18073 | 19416 ft | 418 kts | 205° |
| 2026-05-08 13:34 | 10.28483 | 106.16716 | 19858 ft | 421 kts | 205° |
| 2026-05-08 13:34 | 10.25876 | 106.15354 | 20285 ft | 424 kts | 205° |
| 2026-05-08 13:34 | 10.23243 | 106.13981 | 20712 ft | 427 kts | 205° |
| 2026-05-08 13:35 | 10.20595 | 106.12602 | 21140 ft | 429 kts | 205° |
| 2026-05-08 13:35 | 10.17929 | 106.11214 | 21585 ft | 432 kts | 205° |
| 2026-05-08 13:35 | 10.15245 | 106.09817 | 21991 ft | 435 kts | 205° |
| 2026-05-08 13:35 | 10.12540 | 106.08411 | 22408 ft | 438 kts | 205° |
| 2026-05-08 13:36 | 10.09821 | 106.06997 | 22824 ft | 441 kts | 205° |
| 2026-05-08 13:36 | 10.07122 | 106.05593 | 23224 ft | 443 kts | 205° |
| 2026-05-08 13:36 | 10.04371 | 106.04164 | 23593 ft | 446 kts | 205° |
| 2026-05-08 13:36 | 10.01594 | 106.02724 | 23919 ft | 449 kts | 205° |
| 2026-05-08 13:37 | 9.98811 | 106.01279 | 24237 ft | 451 kts | 206° |
| 2026-05-08 13:37 | 9.96011 | 105.99823 | 24559 ft | 453 kts | 206° |
| 2026-05-08 13:37 | 9.93197 | 105.98359 | 24881 ft | 456 kts | 206° |
| 2026-05-08 13:37 | 9.90448 | 105.96741 | 25176 ft | 460 kts | 215° |
| 2026-05-08 13:38 | 9.87923 | 105.94735 | 25498 ft | 462 kts | 217° |
| 2026-05-08 13:38 | 9.85403 | 105.92696 | 25839 ft | 464 kts | 218° |
| 2026-05-08 13:38 | 9.82881 | 105.90645 | 26160 ft | 467 kts | 218° |
| 2026-05-08 13:38 | 9.80343 | 105.88578 | 26492 ft | 469 kts | 218° |
| 2026-05-08 13:39 | 9.77784 | 105.86497 | 26802 ft | 471 kts | 218° |
| 2026-05-08 13:39 | 9.75219 | 105.84413 | 27118 ft | 474 kts | 218° |
| 2026-05-08 13:39 | 9.72641 | 105.82321 | 27431 ft | 476 kts | 218° |
| 2026-05-08 13:39 | 9.70046 | 105.80218 | 27734 ft | 479 kts | 218° |
| 2026-05-08 13:40 | 9.67437 | 105.78105 | 28023 ft | 481 kts | 218° |
| 2026-05-08 13:40 | 9.64821 | 105.75989 | 28298 ft | 483 kts | 218° |
| 2026-05-08 13:40 | 9.62190 | 105.73859 | 28562 ft | 485 kts | 218° |
| 2026-05-08 13:40 | 9.59549 | 105.71719 | 28808 ft | 487 kts | 218° |
| 2026-05-08 13:41 | 9.56896 | 105.69570 | 29036 ft | 489 kts | 218° |
| 2026-05-08 13:41 | 9.54231 | 105.67415 | 29269 ft | 491 kts | 218° |
| 2026-05-08 13:41 | 9.51559 | 105.65255 | 29475 ft | 492 kts | 218° |
| 2026-05-08 13:41 | 9.48880 | 105.63091 | 29749 ft | 492 kts | 218° |
| 2026-05-08 13:42 | 9.46204 | 105.60928 | 30048 ft | 492 kts | 218° |
| 2026-05-08 13:42 | 9.43532 | 105.58769 | 30320 ft | 491 kts | 218° |
| 2026-05-08 13:42 | 9.40864 | 105.56612 | 30588 ft | 490 kts | 218° |
| 2026-05-08 13:42 | 9.38208 | 105.54461 | 30860 ft | 489 kts | 218° |
| 2026-05-08 13:43 | 9.35550 | 105.52311 | 31132 ft | 489 kts | 218° |
| 2026-05-08 13:43 | 9.32929 | 105.50195 | 31423 ft | 488 kts | 218° |
| 2026-05-08 13:43 | 9.30278 | 105.48057 | 31710 ft | 487 kts | 218° |
| 2026-05-08 13:43 | 9.27622 | 105.45915 | 32017 ft | 486 kts | 219° |
| 2026-05-08 13:44 | 9.24977 | 105.43782 | 32330 ft | 486 kts | 219° |
| 2026-05-08 13:44 | 9.22338 | 105.41652 | 32629 ft | 485 kts | 219° |
| 2026-05-08 13:44 | 9.19705 | 105.39525 | 32951 ft | 484 kts | 219° |
| 2026-05-08 13:44 | 9.17085 | 105.37406 | 33252 ft | 483 kts | 219° |
| 2026-05-08 13:45 | 9.14465 | 105.35287 | 33576 ft | 482 kts | 219° |
| 2026-05-08 13:45 | 9.11847 | 105.33173 | 33831 ft | 481 kts | 219° |
| 2026-05-08 13:45 | 9.06656 | 105.28994 | 33883 ft | 473 kts | 219° |
| 2026-05-08 13:46 | 9.01524 | 105.24857 | 33898 ft | 471 kts | 219° |
| 2026-05-08 13:46 | 8.96403 | 105.20729 | 33892 ft | 470 kts | 219° |
| 2026-05-08 13:47 | 8.91296 | 105.16617 | 33885 ft | 469 kts | 219° |
| 2026-05-08 13:47 | 8.86200 | 105.12517 | 33893 ft | 468 kts | 219° |
| 2026-05-08 13:48 | 8.81144 | 105.08443 | 33902 ft | 468 kts | 218° |
| 2026-05-08 13:48 | 8.76061 | 105.04354 | 33908 ft | 467 kts | 218° |
| 2026-05-08 13:49 | 8.70981 | 105.00269 | 33914 ft | 466 kts | 218° |
| 2026-05-08 13:49 | 8.65914 | 104.96193 | 33915 ft | 465 kts | 218° |
| 2026-05-08 13:50 | 8.60856 | 104.92130 | 33914 ft | 464 kts | 218° |
| 2026-05-08 13:50 | 8.55811 | 104.88082 | 33918 ft | 463 kts | 218° |
| 2026-05-08 13:51 | 8.50773 | 104.84036 | 33913 ft | 462 kts | 218° |
| 2026-05-08 13:51 | 8.45733 | 104.79987 | 33910 ft | 462 kts | 217° |
| 2026-05-08 13:52 | 8.40735 | 104.75973 | 33909 ft | 463 kts | 217° |
| 2026-05-08 13:52 | 8.35689 | 104.71929 | 33905 ft | 463 kts | 217° |
| 2026-05-08 13:53 | 8.30638 | 104.67882 | 33903 ft | 464 kts | 217° |
| 2026-05-08 13:53 | 8.25593 | 104.63826 | 33906 ft | 464 kts | 217° |
| 2026-05-08 13:54 | 8.20536 | 104.59764 | 33901 ft | 465 kts | 217° |
| 2026-05-08 13:54 | 8.15468 | 104.55714 | 33903 ft | 465 kts | 217° |
| 2026-05-08 13:55 | 8.10395 | 104.51656 | 33904 ft | 465 kts | 217° |
| 2026-05-08 13:56 | 8.02799 | 104.45569 | 33904 ft | 465 kts | 217° |
| 2026-05-08 13:56 | 7.97721 | 104.41508 | 33900 ft | 466 kts | 217° |
| 2026-05-08 13:57 | 7.92673 | 104.37467 | 33903 ft | 467 kts | 217° |
| 2026-05-08 13:57 | 7.87588 | 104.33389 | 33904 ft | 467 kts | 217° |
| 2026-05-08 13:58 | 7.82498 | 104.29320 | 33904 ft | 468 kts | 217° |
| 2026-05-08 13:58 | 7.77390 | 104.25244 | 33904 ft | 468 kts | 217° |
| 2026-05-08 13:59 | 7.72276 | 104.21156 | 33907 ft | 469 kts | 218° |
| 2026-05-08 13:59 | 7.67158 | 104.17072 | 33913 ft | 469 kts | 217° |
| 2026-05-08 14:00 | 7.62048 | 104.12998 | 33911 ft | 469 kts | 217° |
| 2026-05-08 14:00 | 7.56940 | 104.08927 | 33919 ft | 468 kts | 218° |
| 2026-05-08 14:01 | 7.51843 | 104.04852 | 33920 ft | 467 kts | 218° |
| 2026-05-08 14:01 | 7.46787 | 104.00805 | 33926 ft | 467 kts | 218° |
| 2026-05-08 14:02 | 7.41699 | 103.96749 | 33928 ft | 466 kts | 218° |
| 2026-05-08 14:02 | 7.36610 | 103.92698 | 33929 ft | 466 kts | 217° |
| 2026-05-08 14:03 | 7.31529 | 103.88645 | 33930 ft | 466 kts | 218° |
| 2026-05-08 14:03 | 7.26445 | 103.84599 | 33933 ft | 466 kts | 218° |
| 2026-05-08 14:04 | 7.21358 | 103.80551 | 33930 ft | 466 kts | 217° |
| 2026-05-08 14:04 | 7.16272 | 103.76501 | 33925 ft | 466 kts | 218° |
| 2026-05-08 14:05 | 7.11192 | 103.72449 | 33930 ft | 466 kts | 218° |
| 2026-05-08 14:05 | 7.06095 | 103.68387 | 33929 ft | 467 kts | 217° |
| 2026-05-08 14:06 | 7.00998 | 103.64338 | 33925 ft | 467 kts | 217° |
| 2026-05-08 14:06 | 6.95904 | 103.60261 | 33919 ft | 468 kts | 220° |
| 2026-05-08 14:07 | 6.91739 | 103.55293 | 33922 ft | 470 kts | 238° |
| 2026-05-08 14:07 | 6.88404 | 103.49627 | 33919 ft | 471 kts | 239° |
| 2026-05-08 14:08 | 6.85045 | 103.43964 | 33914 ft | 471 kts | 238° |
| 2026-05-08 14:08 | 6.81675 | 103.38301 | 33919 ft | 472 kts | 238° |
| 2026-05-08 14:09 | 6.78313 | 103.32633 | 33920 ft | 472 kts | 238° |
| 2026-05-08 14:09 | 6.74933 | 103.26945 | 33909 ft | 473 kts | 238° |
| 2026-05-08 14:10 | 6.71557 | 103.21267 | 33919 ft | 473 kts | 238° |
| 2026-05-08 14:10 | 6.68178 | 103.15581 | 33919 ft | 474 kts | 238° |
| 2026-05-08 14:11 | 6.64793 | 103.09888 | 33918 ft | 474 kts | 238° |
| 2026-05-08 14:11 | 6.61425 | 103.04236 | 33922 ft | 475 kts | 238° |
| 2026-05-08 14:12 | 6.58034 | 102.98537 | 33917 ft | 475 kts | 238° |
| 2026-05-08 14:12 | 6.54643 | 102.92827 | 33922 ft | 475 kts | 238° |
| 2026-05-08 14:13 | 6.51252 | 102.87127 | 33922 ft | 475 kts | 238° |
| 2026-05-08 14:13 | 6.47852 | 102.81422 | 33923 ft | 476 kts | 238° |
| 2026-05-08 14:14 | 6.44366 | 102.75769 | 33926 ft | 476 kts | 237° |
| 2026-05-08 14:14 | 6.40793 | 102.70176 | 33924 ft | 476 kts | 237° |
| 2026-05-08 14:15 | 6.37224 | 102.64574 | 33925 ft | 476 kts | 237° |
| 2026-05-08 14:15 | 6.33674 | 102.58942 | 33923 ft | 476 kts | 237° |
| 2026-05-08 14:16 | 6.30142 | 102.53312 | 33922 ft | 477 kts | 237° |
| 2026-05-08 14:16 | 6.26599 | 102.47677 | 33920 ft | 477 kts | 237° |
| 2026-05-08 14:17 | 6.23043 | 102.42049 | 33917 ft | 477 kts | 237° |
| 2026-05-08 14:17 | 6.19485 | 102.36421 | 33919 ft | 477 kts | 237° |
| 2026-05-08 14:18 | 6.15444 | 102.31224 | 33917 ft | 476 kts | 222° |
| 2026-05-08 14:18 | 6.10097 | 102.27352 | 33918 ft | 474 kts | 212° |
| 2026-05-08 14:19 | 6.04552 | 102.23766 | 33918 ft | 475 kts | 212° |
| 2026-05-08 14:19 | 5.99007 | 102.20162 | 33923 ft | 475 kts | 212° |
| 2026-05-08 14:20 | 5.93467 | 102.16547 | 33925 ft | 475 kts | 212° |
| 2026-05-08 14:20 | 5.87918 | 102.12941 | 33928 ft | 475 kts | 212° |
| 2026-05-08 14:21 | 5.82364 | 102.09334 | 33935 ft | 475 kts | 212° |
| 2026-05-08 14:21 | 5.76814 | 102.05726 | 33936 ft | 475 kts | 212° |
| 2026-05-08 14:22 | 5.72202 | 102.02735 | 33942 ft | 475 kts | 212° |
| 2026-05-08 14:22 | 5.66650 | 101.99130 | 33948 ft | 475 kts | 212° |
| 2026-05-08 14:22 | 5.63943 | 101.97230 | 33806 ft | 475 kts | 219° |
| 2026-05-08 14:23 | 5.61591 | 101.94905 | 33541 ft | 475 kts | 229° |
| 2026-05-08 14:23 | 5.59682 | 101.92193 | 32840 ft | 477 kts | 240° |
| 2026-05-08 14:23 | 5.58336 | 101.89156 | 32113 ft | 478 kts | 252° |
| 2026-05-08 14:23 | 5.57369 | 101.84795 | 31176 ft | 481 kts | 259° |
| 2026-05-08 14:24 | 5.56973 | 101.82601 | 30725 ft | 483 kts | 259° |
| 2026-05-08 14:24 | 5.56369 | 101.79276 | 30052 ft | 485 kts | 259° |
| 2026-05-08 14:24 | 5.55756 | 101.75936 | 29271 ft | 488 kts | 259° |
| 2026-05-08 14:24 | 5.55135 | 101.72581 | 28495 ft | 490 kts | 259° |
| 2026-05-08 14:25 | 5.54509 | 101.69214 | 27752 ft | 492 kts | 259° |
| 2026-05-08 14:25 | 5.53880 | 101.65833 | 27022 ft | 494 kts | 259° |
| 2026-05-08 14:25 | 5.53259 | 101.62486 | 26331 ft | 495 kts | 259° |
| 2026-05-08 14:25 | 5.52632 | 101.59079 | 25625 ft | 497 kts | 259° |
| 2026-05-08 14:26 | 5.52004 | 101.55663 | 24945 ft | 497 kts | 259° |
| 2026-05-08 14:26 | 5.51377 | 101.52260 | 24283 ft | 494 kts | 259° |
| 2026-05-08 14:26 | 5.50756 | 101.48884 | 23635 ft | 490 kts | 259° |
| 2026-05-08 14:26 | 5.50149 | 101.45587 | 22877 ft | 465 kts | 259° |
| 2026-05-08 14:27 | 5.49583 | 101.42512 | 22256 ft | 430 kts | 259° |
| 2026-05-08 14:27 | 5.49058 | 101.39669 | 21739 ft | 400 kts | 259° |
| 2026-05-08 14:27 | 5.48566 | 101.37012 | 21207 ft | 378 kts | 259° |
| 2026-05-08 14:27 | 5.48092 | 101.34447 | 20682 ft | 370 kts | 259° |
| 2026-05-08 14:28 | 5.47624 | 101.31921 | 20174 ft | 368 kts | 258° |
| 2026-05-08 14:28 | 5.47155 | 101.29397 | 19663 ft | 366 kts | 258° |
| 2026-05-08 14:28 | 5.46692 | 101.26896 | 19170 ft | 364 kts | 258° |
| 2026-05-08 14:28 | 5.46231 | 101.24406 | 18697 ft | 362 kts | 258° |
| 2026-05-08 14:29 | 5.45774 | 101.21935 | 18250 ft | 358 kts | 259° |
| 2026-05-08 14:29 | 5.45322 | 101.19488 | 17756 ft | 355 kts | 259° |
| 2026-05-08 14:29 | 5.44872 | 101.17063 | 17248 ft | 352 kts | 259° |
| 2026-05-08 14:29 | 5.44425 | 101.14661 | 16751 ft | 348 kts | 259° |
| 2026-05-08 14:30 | 5.43989 | 101.12313 | 16262 ft | 345 kts | 259° |
| 2026-05-08 14:30 | 5.43553 | 101.09956 | 15790 ft | 342 kts | 259° |
| 2026-05-08 14:30 | 5.43121 | 101.07619 | 15318 ft | 339 kts | 259° |
| 2026-05-08 14:30 | 5.42692 | 101.05305 | 14847 ft | 336 kts | 259° |
| 2026-05-08 14:31 | 5.42264 | 101.03003 | 14388 ft | 333 kts | 259° |
| 2026-05-08 14:31 | 5.41841 | 101.00723 | 13920 ft | 331 kts | 259° |
| 2026-05-08 14:31 | 5.41420 | 100.98457 | 13414 ft | 329 kts | 259° |
| 2026-05-08 14:32 | 5.40586 | 100.93960 | 12360 ft | 326 kts | 259° |
| 2026-05-08 14:32 | 5.40173 | 100.91733 | 11844 ft | 324 kts | 259° |
| 2026-05-08 14:32 | 5.39761 | 100.89524 | 11337 ft | 321 kts | 259° |
| 2026-05-08 14:32 | 5.39352 | 100.87330 | 10838 ft | 320 kts | 259° |
| 2026-05-08 14:33 | 5.38946 | 100.85139 | 10347 ft | 318 kts | 259° |
| 2026-05-08 14:33 | 5.38543 | 100.82966 | 9840 ft | 317 kts | 259° |
| 2026-05-08 14:33 | 5.38139 | 100.80785 | 9184 ft | 319 kts | 259° |
| 2026-05-08 14:33 | 5.37748 | 100.78647 | 8505 ft | 304 kts | 261° |
| 2026-05-08 14:34 | 5.37678 | 100.76613 | 7860 ft | 289 kts | 276° |
| 2026-05-08 14:34 | 5.38063 | 100.74695 | 7477 ft | 275 kts | 284° |
| 2026-05-08 14:34 | 5.38505 | 100.72850 | 7184 ft | 270 kts | 283° |
| 2026-05-08 14:34 | 5.38929 | 100.71026 | 6909 ft | 266 kts | 283° |
| 2026-05-08 14:35 | 5.39343 | 100.69225 | 6626 ft | 264 kts | 283° |
| 2026-05-08 14:35 | 5.39754 | 100.67438 | 6355 ft | 262 kts | 283° |
| 2026-05-08 14:35 | 5.40164 | 100.65663 | 6061 ft | 260 kts | 283° |
| 2026-05-08 14:35 | 5.40572 | 100.63903 | 5763 ft | 259 kts | 283° |
| 2026-05-08 14:36 | 5.40979 | 100.62150 | 5461 ft | 257 kts | 283° |
| 2026-05-08 14:36 | 5.41386 | 100.60409 | 5178 ft | 255 kts | 283° |
| 2026-05-08 14:36 | 5.41788 | 100.58681 | 4896 ft | 253 kts | 283° |
| 2026-05-08 14:36 | 5.42183 | 100.56974 | 4632 ft | 248 kts | 283° |
| 2026-05-08 14:37 | 5.42570 | 100.55308 | 4385 ft | 242 kts | 283° |
| 2026-05-08 14:37 | 5.43042 | 100.53716 | 4138 ft | 235 kts | 292° |
| 2026-05-08 14:37 | 5.43649 | 100.52214 | 3901 ft | 229 kts | 291° |
| 2026-05-08 14:37 | 5.44238 | 100.50749 | 3660 ft | 224 kts | 291° |
| 2026-05-08 14:38 | 5.44799 | 100.49355 | 3437 ft | 204 kts | 291° |
| 2026-05-08 14:38 | 5.45319 | 100.48069 | 3339 ft | 195 kts | 291° |
| 2026-05-08 14:38 | 5.45828 | 100.46812 | 3228 ft | 194 kts | 291° |
| 2026-05-08 14:38 | 5.46334 | 100.45560 | 3105 ft | 193 kts | 291° |
| 2026-05-08 14:39 | 5.46577 | 100.44249 | 3085 ft | 193 kts | 268° |
| 2026-05-08 14:39 | 5.46241 | 100.42961 | 3081 ft | 192 kts | 243° |
| 2026-05-08 14:39 | 5.45402 | 100.41927 | 3083 ft | 192 kts | 221° |
| 2026-05-08 14:39 | 5.44423 | 100.41044 | 3083 ft | 192 kts | 222° |
| 2026-05-08 14:40 | 5.43437 | 100.40142 | 2943 ft | 191 kts | 222° |
| 2026-05-08 14:40 | 5.42457 | 100.39245 | 2770 ft | 190 kts | 222° |
| 2026-05-08 14:40 | 5.41483 | 100.38353 | 2608 ft | 189 kts | 222° |
| 2026-05-08 14:40 | 5.40516 | 100.37466 | 2404 ft | 188 kts | 221° |
| 2026-05-08 14:41 | 5.39573 | 100.36609 | 2248 ft | 172 kts | 221° |
| 2026-05-08 14:41 | 5.38745 | 100.35858 | 2122 ft | 149 kts | 221° |
| 2026-05-08 14:41 | 5.38013 | 100.35203 | 1932 ft | 134 kts | 220° |
| 2026-05-08 14:41 | 5.37337 | 100.34572 | 1649 ft | 133 kts | 221° |
| 2026-05-08 14:42 | 5.36678 | 100.33918 | 1399 ft | 129 kts | 224° |
| 2026-05-08 14:42 | 5.36037 | 100.33291 | 1344 ft | 128 kts | 219° |
| 2026-05-08 14:42 | 5.35366 | 100.32691 | 1201 ft | 131 kts | 221° |
| 2026-05-08 14:42 | 5.34760 | 100.32023 | 1061 ft | 130 kts | 225° |
| 2026-05-08 14:43 | 5.34106 | 100.31414 | 884 ft | 127 kts | 216° |
| 2026-05-08 14:43 | 5.33376 | 100.30887 | 687 ft | 131 kts | 212° |
| 2026-05-08 14:43 | 5.32665 | 100.30340 | 518 ft | 130 kts | 217° |
| 2026-05-08 14:43 | 5.31996 | 100.29736 | 361 ft | 128 kts | 219° |
| 2026-05-08 14:44 | 5.31334 | 100.29147 | 210 ft | 127 kts | 221° |
| 2026-05-08 14:44 | 5.30674 | 100.28553 | 30 ft | 124 kts | 220° |
| 2026-05-08 14:44 | 5.30134 | 100.28066 | 29 ft | 83 kts | 221° |
| 2026-05-08 14:44 | 5.29826 | 100.27790 | 29 ft | 46 kts | 223° |
| 2026-05-08 14:45 | 5.29598 | 100.27582 | 25 ft | 44 kts | 222° |
| 2026-05-08 14:45 | 5.29380 | 100.27379 | 24 ft | 42 kts | 223° |
| 2026-05-08 14:45 | 5.29169 | 100.27189 | 27 ft | 37 kts | 221° |
| 2026-05-08 14:45 | 5.29054 | 100.27077 | 28 ft | 16 kts | 243° |
| 2026-05-08 14:46 | 5.29068 | 100.27040 | 28 ft | 6 kts | 315° |
| 2026-05-08 14:46 | 5.29111 | 100.26997 | 25 ft | 11 kts | 314° |
| 2026-05-08 14:46 | 5.29168 | 100.26932 | 24 ft | 12 kts | 310° |
| 2026-05-08 14:46 | 5.29219 | 100.26875 | 23 ft | 10 kts | 313° |
| 2026-05-08 14:47 | 5.29275 | 100.26812 | 23 ft | 14 kts | 311° |
| 2026-05-08 14:47 | 5.29316 | 100.26766 | 24 ft | 4 kts | 311° |
| 2026-05-08 14:47 | 5.29327 | 100.26753 | 23 ft | 1 kts | 311° |
| 2026-05-08 14:47 | 5.29333 | 100.26746 | 23 ft | 0 kts | 311° |